sensor_id;sensor_type;location;lat;lon;timestamp;P1;durP1;ratioP1;P2;durP2;ratioP2
12970;SDS011;6550;48.650;8.774;2023-12-20T00:01:21;1.50;;;1.40;;
12970;SDS011;6550;48.650;8.774;2023-12-20T00:03:51;1.23;;;1.13;;
12970;SDS011;6550;48.650;8.774;2023-12-20T00:06:20;1.00;;;0.90;;
12970;SDS011;6550;48.650;8.774;2023-12-20T00:08:47;1.30;;;1.00;;
12970;SDS011;6550;48.650;8.774;2023-12-20T00:11:14;1.30;;;1.20;;
12970;SDS011;6550;48.650;8.774;2023-12-20T00:13:43;1.03;;;1.00;;
12970;SDS011;6550;48.650;8.774;2023-12-20T00:16:16;1.07;;;0.93;;
12970;SDS011;6550;48.650;8.774;2023-12-20T00:18:43;0.90;;;0.90;;
12970;SDS011;6550;48.650;8.774;2023-12-20T00:21:11;1.27;;;1.07;;
12970;SDS011;6550;48.650;8.774;2023-12-20T00:23:41;1.10;;;0.97;;
12970;SDS011;6550;48.650;8.774;2023-12-20T00:26:07;0.90;;;0.90;;
12970;SDS011;6550;48.650;8.774;2023-12-20T00:28:34;1.20;;;1.10;;
12970;SDS011;6550;48.650;8.774;2023-12-20T00:31:04;1.10;;;1.00;;
12970;SDS011;6550;48.650;8.774;2023-12-20T00:33:31;1.20;;;1.10;;
12970;SDS011;6550;48.650;8.774;2023-12-20T00:36:00;0.93;;;0.90;;
12970;SDS011;6550;48.650;8.774;2023-12-20T00:38:32;1.13;;;1.02;;
12970;SDS011;6550;48.650;8.774;2023-12-20T00:40:58;0.80;;;0.80;;
12970;SDS011;6550;48.650;8.774;2023-12-20T00:43:25;1.97;;;1.00;;
12970;SDS011;6550;48.650;8.774;2023-12-20T00:45:53;2.93;;;1.10;;
12970;SDS011;6550;48.650;8.774;2023-12-20T00:48:21;1.10;;;1.00;;
12970;SDS011;6550;48.650;8.774;2023-12-20T00:50:53;0.80;;;0.80;;
12970;SDS011;6550;48.650;8.774;2023-12-20T00:53:22;1.07;;;1.00;;
12970;SDS011;6550;48.650;8.774;2023-12-20T00:55:49;0.90;;;0.90;;
12970;SDS011;6550;48.650;8.774;2023-12-20T00:58:21;1.00;;;0.80;;
12970;SDS011;6550;48.650;8.774;2023-12-20T01:00:50;0.82;;;0.70;;
12970;SDS011;6550;48.650;8.774;2023-12-20T01:03:17;0.80;;;0.80;;
12970;SDS011;6550;48.650;8.774;2023-12-20T01:05:46;1.87;;;0.90;;
12970;SDS011;6550;48.650;8.774;2023-12-20T01:08:17;0.60;;;0.60;;
12970;SDS011;6550;48.650;8.774;2023-12-20T01:10:44;0.50;;;0.50;;
12970;SDS011;6550;48.650;8.774;2023-12-20T01:13:12;0.83;;;0.83;;
12970;SDS011;6550;48.650;8.774;2023-12-20T01:15:40;0.80;;;0.80;;
12970;SDS011;6550;48.650;8.774;2023-12-20T01:18:08;0.63;;;0.63;;
12970;SDS011;6550;48.650;8.774;2023-12-20T01:20:35;0.73;;;0.73;;
12970;SDS011;6550;48.650;8.774;2023-12-20T01:23:04;1.00;;;0.70;;
12970;SDS011;6550;48.650;8.774;2023-12-20T01:25:31;0.70;;;0.70;;
12970;SDS011;6550;48.650;8.774;2023-12-20T01:28:00;0.70;;;0.70;;
12970;SDS011;6550;48.650;8.774;2023-12-20T01:30:29;0.50;;;0.50;;
12970;SDS011;6550;48.650;8.774;2023-12-20T01:32:56;0.73;;;0.70;;
12970;SDS011;6550;48.650;8.774;2023-12-20T01:35:23;3.17;;;0.80;;
12970;SDS011;6550;48.650;8.774;2023-12-20T01:37:49;0.50;;;0.50;;
12970;SDS011;6550;48.650;8.774;2023-12-20T01:40:16;0.70;;;0.70;;
12970;SDS011;6550;48.650;8.774;2023-12-20T01:42:46;0.83;;;0.83;;
12970;SDS011;6550;48.650;8.774;2023-12-20T01:45:23;0.83;;;0.83;;
12970;SDS011;6550;48.650;8.774;2023-12-20T01:47:50;0.50;;;0.50;;
12970;SDS011;6550;48.650;8.774;2023-12-20T01:50:22;2.13;;;0.53;;
12970;SDS011;6550;48.650;8.774;2023-12-20T01:52:49;1.80;;;0.60;;
12970;SDS011;6550;48.650;8.774;2023-12-20T01:55:19;0.67;;;0.60;;
12970;SDS011;6550;48.650;8.774;2023-12-20T01:57:46;0.70;;;0.70;;
12970;SDS011;6550;48.650;8.774;2023-12-20T02:00:16;0.30;;;0.30;;
12970;SDS011;6550;48.650;8.774;2023-12-20T02:02:44;0.50;;;0.50;;
12970;SDS011;6550;48.650;8.774;2023-12-20T02:05:14;0.40;;;0.40;;
12970;SDS011;6550;48.650;8.774;2023-12-20T02:07:43;0.50;;;0.50;;
12970;SDS011;6550;48.650;8.774;2023-12-20T02:10:14;0.60;;;0.60;;
12970;SDS011;6550;48.650;8.774;2023-12-20T02:12:42;0.50;;;0.50;;
12970;SDS011;6550;48.650;8.774;2023-12-20T02:15:09;0.50;;;0.50;;
12970;SDS011;6550;48.650;8.774;2023-12-20T02:17:38;0.50;;;0.50;;
12970;SDS011;6550;48.650;8.774;2023-12-20T02:20:06;0.27;;;0.27;;
12970;SDS011;6550;48.650;8.774;2023-12-20T02:22:34;0.50;;;0.50;;
12970;SDS011;6550;48.650;8.774;2023-12-20T02:25:03;0.40;;;0.40;;
12970;SDS011;6550;48.650;8.774;2023-12-20T02:27:32;0.57;;;0.30;;
12970;SDS011;6550;48.650;8.774;2023-12-20T02:30:00;0.40;;;0.40;;
12970;SDS011;6550;48.650;8.774;2023-12-20T02:32:29;0.40;;;0.40;;
12970;SDS011;6550;48.650;8.774;2023-12-20T02:34:57;0.57;;;0.40;;
12970;SDS011;6550;48.650;8.774;2023-12-20T02:37:27;1.17;;;0.30;;
12970;SDS011;6550;48.650;8.774;2023-12-20T02:39:53;0.20;;;0.20;;
12970;SDS011;6550;48.650;8.774;2023-12-20T02:42:20;71.63;;;5.80;;
12970;SDS011;6550;48.650;8.774;2023-12-20T02:44:49;23.90;;;1.80;;
12970;SDS011;6550;48.650;8.774;2023-12-20T02:47:17;1.23;;;0.40;;
12970;SDS011;6550;48.650;8.774;2023-12-20T02:49:43;0.30;;;0.30;;
12970;SDS011;6550;48.650;8.774;2023-12-20T02:52:10;14.43;;;1.43;;
12970;SDS011;6550;48.650;8.774;2023-12-20T02:54:37;1.25;;;0.38;;
12970;SDS011;6550;48.650;8.774;2023-12-20T02:57:04;0.23;;;0.23;;
12970;SDS011;6550;48.650;8.774;2023-12-20T02:59:31;0.70;;;0.37;;
12970;SDS011;6550;48.650;8.774;2023-12-20T03:02:01;0.67;;;0.50;;
12970;SDS011;6550;48.650;8.774;2023-12-20T03:04:28;0.20;;;0.20;;
12970;SDS011;6550;48.650;8.774;2023-12-20T03:06:55;0.83;;;0.37;;
12970;SDS011;6550;48.650;8.774;2023-12-20T03:09:21;0.30;;;0.30;;
12970;SDS011;6550;48.650;8.774;2023-12-20T03:11:48;0.47;;;0.27;;
12970;SDS011;6550;48.650;8.774;2023-12-20T03:14:18;0.30;;;0.20;;
12970;SDS011;6550;48.650;8.774;2023-12-20T03:16:50;2.20;;;0.27;;
12970;SDS011;6550;48.650;8.774;2023-12-20T03:19:19;0.40;;;0.40;;
12970;SDS011;6550;48.650;8.774;2023-12-20T03:21:46;0.77;;;0.20;;
12970;SDS011;6550;48.650;8.774;2023-12-20T03:24:22;0.40;;;0.23;;
12970;SDS011;6550;48.650;8.774;2023-12-20T03:26:49;1.60;;;0.53;;
12970;SDS011;6550;48.650;8.774;2023-12-20T03:29:16;0.70;;;0.30;;
12970;SDS011;6550;48.650;8.774;2023-12-20T03:31:43;0.17;;;0.17;;
12970;SDS011;6550;48.650;8.774;2023-12-20T03:34:10;0.27;;;0.27;;
12970;SDS011;6550;48.650;8.774;2023-12-20T03:36:37;0.17;;;0.17;;
12970;SDS011;6550;48.650;8.774;2023-12-20T03:39:06;0.50;;;0.30;;
12970;SDS011;6550;48.650;8.774;2023-12-20T03:41:33;1.90;;;0.50;;
12970;SDS011;6550;48.650;8.774;2023-12-20T03:44:00;0.90;;;0.20;;
12970;SDS011;6550;48.650;8.774;2023-12-20T03:46:32;0.33;;;0.33;;
12970;SDS011;6550;48.650;8.774;2023-12-20T03:48:58;0.20;;;0.20;;
12970;SDS011;6550;48.650;8.774;2023-12-20T03:51:29;0.98;;;0.38;;
12970;SDS011;6550;48.650;8.774;2023-12-20T03:53:56;0.30;;;0.30;;
12970;SDS011;6550;48.650;8.774;2023-12-20T03:56:23;0.60;;;0.40;;
12970;SDS011;6550;48.650;8.774;2023-12-20T03:58:54;0.30;;;0.30;;
12970;SDS011;6550;48.650;8.774;2023-12-20T04:01:21;10.57;;;0.60;;
12970;SDS011;6550;48.650;8.774;2023-12-20T04:03:50;0.53;;;0.37;;
12970;SDS011;6550;48.650;8.774;2023-12-20T04:06:17;0.77;;;0.50;;
12970;SDS011;6550;48.650;8.774;2023-12-20T04:08:47;0.50;;;0.50;;
12970;SDS011;6550;48.650;8.774;2023-12-20T04:11:14;1.60;;;0.37;;
12970;SDS011;6550;48.650;8.774;2023-12-20T04:13:41;1.93;;;0.80;;
12970;SDS011;6550;48.650;8.774;2023-12-20T04:16:10;0.57;;;0.57;;
12970;SDS011;6550;48.650;8.774;2023-12-20T04:18:37;9.93;;;1.10;;
12970;SDS011;6550;48.650;8.774;2023-12-20T04:21:04;0.97;;;0.90;;
12970;SDS011;6550;48.650;8.774;2023-12-20T04:23:30;1.57;;;1.43;;
12970;SDS011;6550;48.650;8.774;2023-12-20T04:25:57;2.03;;;1.27;;
12970;SDS011;6550;48.650;8.774;2023-12-20T04:28:29;1.60;;;1.50;;
12970;SDS011;6550;48.650;8.774;2023-12-20T04:30:58;3.63;;;1.47;;
12970;SDS011;6550;48.650;8.774;2023-12-20T04:33:29;1.63;;;1.53;;
12970;SDS011;6550;48.650;8.774;2023-12-20T04:35:56;1.93;;;1.70;;
12970;SDS011;6550;48.650;8.774;2023-12-20T04:38:23;2.33;;;1.90;;
12970;SDS011;6550;48.650;8.774;2023-12-20T04:40:50;2.07;;;1.80;;
12970;SDS011;6550;48.650;8.774;2023-12-20T04:43:19;2.50;;;2.10;;
12970;SDS011;6550;48.650;8.774;2023-12-20T04:45:49;4.03;;;2.30;;
12970;SDS011;6550;48.650;8.774;2023-12-20T04:48:18;4.47;;;2.70;;
12970;SDS011;6550;48.650;8.774;2023-12-20T04:50:45;3.03;;;2.23;;
12970;SDS011;6550;48.650;8.774;2023-12-20T04:53:12;4.23;;;2.60;;
12970;SDS011;6550;48.650;8.774;2023-12-20T04:55:39;4.53;;;3.00;;
12970;SDS011;6550;48.650;8.774;2023-12-20T04:58:10;4.97;;;3.20;;
12970;SDS011;6550;48.650;8.774;2023-12-20T05:00:37;5.03;;;3.00;;
12970;SDS011;6550;48.650;8.774;2023-12-20T05:03:06;5.53;;;3.40;;
12970;SDS011;6550;48.650;8.774;2023-12-20T05:05:35;5.63;;;3.30;;
12970;SDS011;6550;48.650;8.774;2023-12-20T05:08:05;5.03;;;3.57;;
12970;SDS011;6550;48.650;8.774;2023-12-20T05:10:33;5.53;;;3.63;;
12970;SDS011;6550;48.650;8.774;2023-12-20T05:13:06;5.10;;;3.27;;
12970;SDS011;6550;48.650;8.774;2023-12-20T05:15:34;8.17;;;4.30;;
12970;SDS011;6550;48.650;8.774;2023-12-20T05:18:01;6.83;;;3.90;;
12970;SDS011;6550;48.650;8.774;2023-12-20T05:20:28;7.77;;;4.27;;
12970;SDS011;6550;48.650;8.774;2023-12-20T05:22:57;6.27;;;4.17;;
12970;SDS011;6550;48.650;8.774;2023-12-20T05:25:24;8.57;;;4.10;;
12970;SDS011;6550;48.650;8.774;2023-12-20T05:27:51;8.90;;;3.80;;
12970;SDS011;6550;48.650;8.774;2023-12-20T05:30:18;6.47;;;3.80;;
12970;SDS011;6550;48.650;8.774;2023-12-20T05:32:50;5.43;;;3.10;;
12970;SDS011;6550;48.650;8.774;2023-12-20T05:35:17;6.67;;;4.00;;
12970;SDS011;6550;48.650;8.774;2023-12-20T05:37:45;6.40;;;3.83;;
12970;SDS011;6550;48.650;8.774;2023-12-20T05:40:14;6.37;;;3.97;;
12970;SDS011;6550;48.650;8.774;2023-12-20T05:42:41;5.27;;;3.10;;
12970;SDS011;6550;48.650;8.774;2023-12-20T05:45:08;7.32;;;3.70;;
12970;SDS011;6550;48.650;8.774;2023-12-20T05:47:35;6.10;;;3.50;;
12970;SDS011;6550;48.650;8.774;2023-12-20T05:50:02;5.70;;;3.47;;
12970;SDS011;6550;48.650;8.774;2023-12-20T05:52:31;5.70;;;3.63;;
12970;SDS011;6550;48.650;8.774;2023-12-20T05:55:01;6.47;;;3.57;;
12970;SDS011;6550;48.650;8.774;2023-12-20T05:57:30;5.37;;;3.67;;
12970;SDS011;6550;48.650;8.774;2023-12-20T05:59:59;6.90;;;3.47;;
12970;SDS011;6550;48.650;8.774;2023-12-20T06:02:30;5.90;;;3.70;;
12970;SDS011;6550;48.650;8.774;2023-12-20T06:04:57;5.73;;;3.50;;
12970;SDS011;6550;48.650;8.774;2023-12-20T06:07:28;4.87;;;3.33;;
12970;SDS011;6550;48.650;8.774;2023-12-20T06:09:55;5.37;;;3.00;;
12970;SDS011;6550;48.650;8.774;2023-12-20T06:12:25;6.20;;;3.63;;
12970;SDS011;6550;48.650;8.774;2023-12-20T06:14:56;5.53;;;3.00;;
12970;SDS011;6550;48.650;8.774;2023-12-20T06:17:23;10.27;;;3.70;;
12970;SDS011;6550;48.650;8.774;2023-12-20T06:19:53;11.77;;;3.60;;
12970;SDS011;6550;48.650;8.774;2023-12-20T06:22:20;44.30;;;4.07;;
12970;SDS011;6550;48.650;8.774;2023-12-20T06:24:49;14.20;;;3.13;;
12970;SDS011;6550;48.650;8.774;2023-12-20T06:27:16;8.43;;;3.70;;
12970;SDS011;6550;48.650;8.774;2023-12-20T06:29:43;6.03;;;3.37;;
12970;SDS011;6550;48.650;8.774;2023-12-20T06:32:12;8.57;;;3.27;;
12970;SDS011;6550;48.650;8.774;2023-12-20T06:34:40;9.60;;;3.00;;
12970;SDS011;6550;48.650;8.774;2023-12-20T06:37:07;10.93;;;3.10;;
12970;SDS011;6550;48.650;8.774;2023-12-20T06:39:33;8.67;;;2.90;;
12970;SDS011;6550;48.650;8.774;2023-12-20T06:42:01;8.70;;;3.50;;
12970;SDS011;6550;48.650;8.774;2023-12-20T06:44:27;6.80;;;3.20;;
12970;SDS011;6550;48.650;8.774;2023-12-20T06:46:57;14.20;;;3.60;;
12970;SDS011;6550;48.650;8.774;2023-12-20T06:49:29;6.43;;;3.20;;
12970;SDS011;6550;48.650;8.774;2023-12-20T06:51:58;6.67;;;3.00;;
12970;SDS011;6550;48.650;8.774;2023-12-20T06:54:25;8.33;;;2.97;;
12970;SDS011;6550;48.650;8.774;2023-12-20T06:56:54;5.63;;;3.00;;
12970;SDS011;6550;48.650;8.774;2023-12-20T06:59:23;8.17;;;3.23;;
12970;SDS011;6550;48.650;8.774;2023-12-20T07:01:50;5.60;;;3.13;;
12970;SDS011;6550;48.650;8.774;2023-12-20T07:04:17;14.47;;;2.87;;
12970;SDS011;6550;48.650;8.774;2023-12-20T07:06:49;6.70;;;2.80;;
12970;SDS011;6550;48.650;8.774;2023-12-20T07:09:18;4.90;;;2.17;;
12970;SDS011;6550;48.650;8.774;2023-12-20T07:11:45;6.53;;;2.77;;
12970;SDS011;6550;48.650;8.774;2023-12-20T07:14:12;3.40;;;2.20;;
12970;SDS011;6550;48.650;8.774;2023-12-20T07:16:39;4.43;;;2.60;;
12970;SDS011;6550;48.650;8.774;2023-12-20T07:19:06;4.23;;;2.50;;
12970;SDS011;6550;48.650;8.774;2023-12-20T07:21:33;5.03;;;2.37;;
12970;SDS011;6550;48.650;8.774;2023-12-20T07:24:00;2.60;;;1.93;;
12970;SDS011;6550;48.650;8.774;2023-12-20T07:26:27;6.27;;;2.83;;
12970;SDS011;6550;48.650;8.774;2023-12-20T07:28:57;3.07;;;2.40;;
12970;SDS011;6550;48.650;8.774;2023-12-20T07:31:25;4.90;;;2.13;;
12970;SDS011;6550;48.650;8.774;2023-12-20T07:33:52;3.33;;;2.07;;
12970;SDS011;6550;48.650;8.774;2023-12-20T07:36:19;3.30;;;2.23;;
12970;SDS011;6550;48.650;8.774;2023-12-20T07:38:47;3.00;;;2.28;;
12970;SDS011;6550;48.650;8.774;2023-12-20T07:41:16;3.40;;;2.33;;
12970;SDS011;6550;48.650;8.774;2023-12-20T07:43:50;3.17;;;1.93;;
12970;SDS011;6550;48.650;8.774;2023-12-20T07:46:20;3.23;;;2.07;;
12970;SDS011;6550;48.650;8.774;2023-12-20T07:48:52;3.37;;;2.20;;
12970;SDS011;6550;48.650;8.774;2023-12-20T07:51:19;3.33;;;2.50;;
12970;SDS011;6550;48.650;8.774;2023-12-20T07:53:48;2.10;;;1.87;;
12970;SDS011;6550;48.650;8.774;2023-12-20T07:56:16;3.73;;;2.33;;
12970;SDS011;6550;48.650;8.774;2023-12-20T07:58:44;4.50;;;2.40;;
12970;SDS011;6550;48.650;8.774;2023-12-20T08:01:18;4.40;;;2.40;;
12970;SDS011;6550;48.650;8.774;2023-12-20T08:03:46;2.60;;;2.10;;
12970;SDS011;6550;48.650;8.774;2023-12-20T08:06:14;3.73;;;2.63;;
12970;SDS011;6550;48.650;8.774;2023-12-20T08:08:41;3.53;;;2.43;;
12970;SDS011;6550;48.650;8.774;2023-12-20T08:11:10;2.83;;;2.30;;
12970;SDS011;6550;48.650;8.774;2023-12-20T08:13:38;3.13;;;2.30;;
12970;SDS011;6550;48.650;8.774;2023-12-20T08:16:05;4.17;;;2.23;;
12970;SDS011;6550;48.650;8.774;2023-12-20T08:18:32;2.50;;;2.00;;
12970;SDS011;6550;48.650;8.774;2023-12-20T08:21:00;3.43;;;2.67;;
12970;SDS011;6550;48.650;8.774;2023-12-20T08:23:27;2.30;;;2.00;;
12970;SDS011;6550;48.650;8.774;2023-12-20T08:25:58;1.90;;;1.70;;
12970;SDS011;6550;48.650;8.774;2023-12-20T08:28:25;3.57;;;1.57;;
12970;SDS011;6550;48.650;8.774;2023-12-20T08:30:52;2.50;;;1.67;;
12970;SDS011;6550;48.650;8.774;2023-12-20T08:33:21;1.60;;;1.47;;
12970;SDS011;6550;48.650;8.774;2023-12-20T08:35:51;2.50;;;1.80;;
12970;SDS011;6550;48.650;8.774;2023-12-20T08:38:17;2.27;;;1.60;;
12970;SDS011;6550;48.650;8.774;2023-12-20T08:40:47;1.33;;;1.23;;
12970;SDS011;6550;48.650;8.774;2023-12-20T08:43:14;1.47;;;1.37;;
12970;SDS011;6550;48.650;8.774;2023-12-20T08:45:42;2.00;;;1.50;;
12970;SDS011;6550;48.650;8.774;2023-12-20T08:48:09;1.97;;;1.50;;
12970;SDS011;6550;48.650;8.774;2023-12-20T08:50:36;1.63;;;1.23;;
12970;SDS011;6550;48.650;8.774;2023-12-20T08:53:06;1.70;;;1.20;;
12970;SDS011;6550;48.650;8.774;2023-12-20T08:55:35;1.77;;;1.30;;
12970;SDS011;6550;48.650;8.774;2023-12-20T08:58:07;1.73;;;1.20;;
12970;SDS011;6550;48.650;8.774;2023-12-20T09:00:34;1.00;;;0.90;;
12970;SDS011;6550;48.650;8.774;2023-12-20T09:03:02;1.20;;;1.10;;
12970;SDS011;6550;48.650;8.774;2023-12-20T09:05:31;1.97;;;1.13;;
12970;SDS011;6550;48.650;8.774;2023-12-20T09:08:00;1.73;;;1.30;;
12970;SDS011;6550;48.650;8.774;2023-12-20T09:10:32;1.83;;;1.23;;
12970;SDS011;6550;48.650;8.774;2023-12-20T09:13:02;1.07;;;0.90;;
12970;SDS011;6550;48.650;8.774;2023-12-20T09:15:31;1.27;;;1.03;;
12970;SDS011;6550;48.650;8.774;2023-12-20T09:18:02;1.33;;;1.23;;
12970;SDS011;6550;48.650;8.774;2023-12-20T09:20:30;2.10;;;1.13;;
12970;SDS011;6550;48.650;8.774;2023-12-20T09:22:57;1.90;;;1.30;;
12970;SDS011;6550;48.650;8.774;2023-12-20T09:25:29;1.30;;;1.17;;
12970;SDS011;6550;48.650;8.774;2023-12-20T09:27:56;2.53;;;1.23;;
12970;SDS011;6550;48.650;8.774;2023-12-20T09:30:23;1.53;;;1.10;;
12970;SDS011;6550;48.650;8.774;2023-12-20T09:32:54;1.53;;;1.13;;
12970;SDS011;6550;48.650;8.774;2023-12-20T09:35:23;2.77;;;1.20;;
12970;SDS011;6550;48.650;8.774;2023-12-20T09:37:51;2.10;;;1.10;;
12970;SDS011;6550;48.650;8.774;2023-12-20T09:40:18;1.57;;;1.00;;
12970;SDS011;6550;48.650;8.774;2023-12-20T09:42:48;1.77;;;0.90;;
12970;SDS011;6550;48.650;8.774;2023-12-20T09:45:23;2.67;;;1.10;;
12970;SDS011;6550;48.650;8.774;2023-12-20T09:47:52;1.70;;;1.00;;
12970;SDS011;6550;48.650;8.774;2023-12-20T09:50:23;1.10;;;0.90;;
12970;SDS011;6550;48.650;8.774;2023-12-20T09:52:51;1.27;;;0.90;;
12970;SDS011;6550;48.650;8.774;2023-12-20T09:55:19;1.17;;;1.00;;
12970;SDS011;6550;48.650;8.774;2023-12-20T09:57:47;1.73;;;0.90;;
12970;SDS011;6550;48.650;8.774;2023-12-20T10:00:17;1.13;;;1.00;;
12970;SDS011;6550;48.650;8.774;2023-12-20T10:02:50;2.60;;;1.10;;
12970;SDS011;6550;48.650;8.774;2023-12-20T10:05:27;2.50;;;1.13;;
12970;SDS011;6550;48.650;8.774;2023-12-20T10:07:56;1.00;;;0.90;;
12970;SDS011;6550;48.650;8.774;2023-12-20T10:10:23;2.10;;;1.00;;
12970;SDS011;6550;48.650;8.774;2023-12-20T10:13:08;1.70;;;0.90;;
12970;SDS011;6550;48.650;8.774;2023-12-20T10:15:40;2.07;;;1.00;;
12970;SDS011;6550;48.650;8.774;2023-12-20T10:18:08;0.83;;;0.77;;
12970;SDS011;6550;48.650;8.774;2023-12-20T10:20:35;1.07;;;0.70;;
12970;SDS011;6550;48.650;8.774;2023-12-20T10:23:05;1.73;;;0.90;;
12970;SDS011;6550;48.650;8.774;2023-12-20T10:25:32;1.93;;;0.93;;
12970;SDS011;6550;48.650;8.774;2023-12-20T10:28:08;1.58;;;1.10;;
12970;SDS011;6550;48.650;8.774;2023-12-20T10:30:39;1.83;;;1.00;;
12970;SDS011;6550;48.650;8.774;2023-12-20T10:33:09;1.17;;;0.70;;
12970;SDS011;6550;48.650;8.774;2023-12-20T10:35:38;1.03;;;0.90;;
12970;SDS011;6550;48.650;8.774;2023-12-20T10:38:11;1.30;;;0.87;;
12970;SDS011;6550;48.650;8.774;2023-12-20T10:40:39;1.60;;;0.93;;
12970;SDS011;6550;48.650;8.774;2023-12-20T10:43:07;1.53;;;1.00;;
12970;SDS011;6550;48.650;8.774;2023-12-20T10:45:36;1.07;;;0.70;;
12970;SDS011;6550;48.650;8.774;2023-12-20T10:48:03;1.00;;;0.87;;
12970;SDS011;6550;48.650;8.774;2023-12-20T10:50:31;1.47;;;1.07;;
12970;SDS011;6550;48.650;8.774;2023-12-20T10:53:00;1.47;;;0.80;;
12970;SDS011;6550;48.650;8.774;2023-12-20T10:55:30;0.90;;;0.90;;
12970;SDS011;6550;48.650;8.774;2023-12-20T10:58:06;1.83;;;0.80;;
12970;SDS011;6550;48.650;8.774;2023-12-20T11:00:40;1.00;;;0.90;;
12970;SDS011;6550;48.650;8.774;2023-12-20T11:03:12;1.40;;;0.83;;
12970;SDS011;6550;48.650;8.774;2023-12-20T11:06:03;1.03;;;0.70;;
12970;SDS011;6550;48.650;8.774;2023-12-20T11:08:33;1.70;;;0.63;;
12970;SDS011;6550;48.650;8.774;2023-12-20T11:11:12;0.90;;;0.83;;
12970;SDS011;6550;48.650;8.774;2023-12-20T11:13:55;1.60;;;1.00;;
12970;SDS011;6550;48.650;8.774;2023-12-20T11:16:32;2.07;;;0.80;;
12970;SDS011;6550;48.650;8.774;2023-12-20T11:19:13;2.27;;;1.10;;
12970;SDS011;6550;48.650;8.774;2023-12-20T11:21:40;1.30;;;0.82;;
12970;SDS011;6550;48.650;8.774;2023-12-20T11:24:08;1.27;;;0.90;;
12970;SDS011;6550;48.650;8.774;2023-12-20T11:26:38;1.50;;;0.97;;
12970;SDS011;6550;48.650;8.774;2023-12-20T11:29:33;1.00;;;0.73;;
12970;SDS011;6550;48.650;8.774;2023-12-20T11:32:03;1.60;;;1.10;;
12970;SDS011;6550;48.650;8.774;2023-12-20T11:34:51;1.27;;;0.90;;
12970;SDS011;6550;48.650;8.774;2023-12-20T11:37:25;1.43;;;1.03;;
12970;SDS011;6550;48.650;8.774;2023-12-20T11:40:00;2.43;;;1.00;;
12970;SDS011;6550;48.650;8.774;2023-12-20T11:42:40;1.47;;;0.83;;
12970;SDS011;6550;48.650;8.774;2023-12-20T11:45:18;1.73;;;1.13;;
12970;SDS011;6550;48.650;8.774;2023-12-20T11:47:56;4.10;;;1.67;;
12970;SDS011;6550;48.650;8.774;2023-12-20T11:50:25;1.33;;;1.20;;
12970;SDS011;6550;48.650;8.774;2023-12-20T11:52:53;3.33;;;1.43;;
12970;SDS011;6550;48.650;8.774;2023-12-20T11:55:25;1.20;;;0.90;;
12970;SDS011;6550;48.650;8.774;2023-12-20T11:57:57;2.47;;;1.30;;
12970;SDS011;6550;48.650;8.774;2023-12-20T12:00:25;2.63;;;1.10;;
12970;SDS011;6550;48.650;8.774;2023-12-20T12:02:58;3.63;;;1.63;;
12970;SDS011;6550;48.650;8.774;2023-12-20T12:05:27;3.50;;;1.10;;
12970;SDS011;6550;48.650;8.774;2023-12-20T12:07:57;3.03;;;1.50;;
12970;SDS011;6550;48.650;8.774;2023-12-20T12:10:26;3.20;;;1.37;;
12970;SDS011;6550;48.650;8.774;2023-12-20T12:12:56;2.15;;;1.42;;
12970;SDS011;6550;48.650;8.774;2023-12-20T12:15:25;2.37;;;1.70;;
12970;SDS011;6550;48.650;8.774;2023-12-20T12:17:53;2.00;;;1.40;;
12970;SDS011;6550;48.650;8.774;2023-12-20T12:20:23;2.13;;;1.43;;
12970;SDS011;6550;48.650;8.774;2023-12-20T12:23:04;2.53;;;1.30;;
12970;SDS011;6550;48.650;8.774;2023-12-20T12:25:34;2.20;;;1.70;;
12970;SDS011;6550;48.650;8.774;2023-12-20T12:28:07;2.10;;;1.30;;
12970;SDS011;6550;48.650;8.774;2023-12-20T12:30:33;2.70;;;1.50;;
12970;SDS011;6550;48.650;8.774;2023-12-20T12:33:11;2.00;;;1.53;;
12970;SDS011;6550;48.650;8.774;2023-12-20T12:35:40;4.13;;;1.50;;
12970;SDS011;6550;48.650;8.774;2023-12-20T12:38:11;1.73;;;1.33;;
12970;SDS011;6550;48.650;8.774;2023-12-20T12:40:43;2.20;;;1.42;;
12970;SDS011;6550;48.650;8.774;2023-12-20T12:43:10;2.33;;;1.50;;
12970;SDS011;6550;48.650;8.774;2023-12-20T12:45:39;3.17;;;1.70;;
12970;SDS011;6550;48.650;8.774;2023-12-20T12:48:09;1.63;;;1.23;;
12970;SDS011;6550;48.650;8.774;2023-12-20T12:50:39;2.30;;;2.10;;
12970;SDS011;6550;48.650;8.774;2023-12-20T12:53:06;3.87;;;2.00;;
12970;SDS011;6550;48.650;8.774;2023-12-20T12:55:35;4.23;;;2.10;;
12970;SDS011;6550;48.650;8.774;2023-12-20T12:58:05;2.30;;;1.83;;
12970;SDS011;6550;48.650;8.774;2023-12-20T13:00:33;3.43;;;2.20;;
12970;SDS011;6550;48.650;8.774;2023-12-20T13:03:01;2.73;;;2.30;;
12970;SDS011;6550;48.650;8.774;2023-12-20T13:05:31;2.80;;;2.40;;
12970;SDS011;6550;48.650;8.774;2023-12-20T13:08:03;3.30;;;1.90;;
12970;SDS011;6550;48.650;8.774;2023-12-20T13:10:33;4.17;;;2.20;;
12970;SDS011;6550;48.650;8.774;2023-12-20T13:13:02;1.90;;;1.40;;
12970;SDS011;6550;48.650;8.774;2023-12-20T13:15:30;2.23;;;2.00;;
12970;SDS011;6550;48.650;8.774;2023-12-20T13:17:57;3.00;;;2.03;;
12970;SDS011;6550;48.650;8.774;2023-12-20T13:20:27;2.00;;;1.80;;
12970;SDS011;6550;48.650;8.774;2023-12-20T13:22:54;2.30;;;1.60;;
12970;SDS011;6550;48.650;8.774;2023-12-20T13:25:21;5.23;;;2.00;;
12970;SDS011;6550;48.650;8.774;2023-12-20T13:27:48;2.77;;;1.60;;
12970;SDS011;6550;48.650;8.774;2023-12-20T13:30:18;2.63;;;1.90;;
12970;SDS011;6550;48.650;8.774;2023-12-20T13:32:47;2.55;;;1.67;;
12970;SDS011;6550;48.650;8.774;2023-12-20T13:35:15;4.13;;;1.50;;
12970;SDS011;6550;48.650;8.774;2023-12-20T13:37:42;2.70;;;1.50;;
12970;SDS011;6550;48.650;8.774;2023-12-20T13:40:13;2.83;;;1.83;;
12970;SDS011;6550;48.650;8.774;2023-12-20T13:42:40;3.60;;;1.80;;
12970;SDS011;6550;48.650;8.774;2023-12-20T13:45:09;2.70;;;1.80;;
12970;SDS011;6550;48.650;8.774;2023-12-20T13:47:50;3.07;;;1.47;;
12970;SDS011;6550;48.650;8.774;2023-12-20T13:50:19;2.17;;;1.30;;
12970;SDS011;6550;48.650;8.774;2023-12-20T13:52:46;2.20;;;1.50;;
12970;SDS011;6550;48.650;8.774;2023-12-20T13:55:15;2.15;;;1.58;;
12970;SDS011;6550;48.650;8.774;2023-12-20T13:57:42;3.50;;;1.63;;
12970;SDS011;6550;48.650;8.774;2023-12-20T14:00:21;4.20;;;1.40;;
12970;SDS011;6550;48.650;8.774;2023-12-20T14:02:49;4.07;;;1.60;;
12970;SDS011;6550;48.650;8.774;2023-12-20T14:05:16;8.20;;;1.80;;
12970;SDS011;6550;48.650;8.774;2023-12-20T14:07:50;4.27;;;1.80;;
12970;SDS011;6550;48.650;8.774;2023-12-20T14:10:17;4.63;;;1.80;;
12970;SDS011;6550;48.650;8.774;2023-12-20T14:12:44;10.90;;;1.77;;
12970;SDS011;6550;48.650;8.774;2023-12-20T14:15:14;3.60;;;1.77;;
12970;SDS011;6550;48.650;8.774;2023-12-20T14:17:43;4.70;;;1.70;;
12970;SDS011;6550;48.650;8.774;2023-12-20T14:20:13;7.97;;;1.83;;
12970;SDS011;6550;48.650;8.774;2023-12-20T14:22:42;6.10;;;1.57;;
12970;SDS011;6550;48.650;8.774;2023-12-20T14:25:11;5.10;;;2.07;;
12970;SDS011;6550;48.650;8.774;2023-12-20T14:27:41;1.97;;;1.67;;
12970;SDS011;6550;48.650;8.774;2023-12-20T14:30:11;6.57;;;1.67;;
12970;SDS011;6550;48.650;8.774;2023-12-20T14:32:43;3.23;;;1.80;;
12970;SDS011;6550;48.650;8.774;2023-12-20T14:35:10;3.20;;;1.90;;
12970;SDS011;6550;48.650;8.774;2023-12-20T14:37:37;4.67;;;1.70;;
12970;SDS011;6550;48.650;8.774;2023-12-20T14:40:06;4.43;;;2.00;;
12970;SDS011;6550;48.650;8.774;2023-12-20T14:42:37;3.57;;;1.70;;
12970;SDS011;6550;48.650;8.774;2023-12-20T14:45:04;5.50;;;1.70;;
12970;SDS011;6550;48.650;8.774;2023-12-20T14:47:33;1.50;;;1.40;;
12970;SDS011;6550;48.650;8.774;2023-12-20T14:50:02;6.07;;;1.70;;
12970;SDS011;6550;48.650;8.774;2023-12-20T14:52:30;4.07;;;1.73;;
12970;SDS011;6550;48.650;8.774;2023-12-20T14:55:00;2.40;;;1.40;;
12970;SDS011;6550;48.650;8.774;2023-12-20T14:57:29;2.57;;;1.60;;
12970;SDS011;6550;48.650;8.774;2023-12-20T14:59:56;4.27;;;1.60;;
12970;SDS011;6550;48.650;8.774;2023-12-20T15:02:26;3.47;;;1.40;;
12970;SDS011;6550;48.650;8.774;2023-12-20T15:04:55;3.10;;;1.70;;
12970;SDS011;6550;48.650;8.774;2023-12-20T15:07:24;3.33;;;1.70;;
12970;SDS011;6550;48.650;8.774;2023-12-20T15:09:53;3.73;;;1.73;;
12970;SDS011;6550;48.650;8.774;2023-12-20T15:12:23;2.23;;;1.70;;